createdAt,value
2017-06-30T00:00:03.310Z,98.1
2017-06-30T00:01:03.280Z,98.1
2017-06-30T00:02:03.262Z,98
2017-06-30T00:03:03.236Z,97.9
2017-06-30T00:04:03.220Z,97.61
2017-06-30T00:05:03.198Z,97.42
2017-06-30T00:06:03.192Z,97.81
2017-06-30T00:07:03.156Z,97.71
2017-06-30T00:08:03.138Z,97.81
2017-06-30T00:09:03.116Z,97.71
2017-06-30T00:10:03.099Z,97.52
2017-06-30T00:11:02.777Z,97.33
2017-06-30T00:12:03.114Z,97.9
2017-06-30T00:13:03.034Z,98
2017-06-30T00:14:03.020Z,97.33
2017-06-30T00:15:03.012Z,97.52
2017-06-30T00:16:02.982Z,97.71
2017-06-30T00:17:03.007Z,97.04
2017-06-30T00:18:02.936Z,97.23
2017-06-30T00:19:02.914Z,97.52
2017-06-30T00:20:02.894Z,97.23
2017-06-30T00:21:02.580Z,97.33
2017-06-30T00:22:02.857Z,96.85
2017-06-30T00:23:02.840Z,97.14
2017-06-30T00:24:02.870Z,96.7
2017-06-30T00:25:02.797Z,96.99
2017-06-30T00:26:02.776Z,96.94
2017-06-30T00:27:02.755Z,97.71
2017-06-30T00:28:02.737Z,97.09
2017-06-30T00:29:02.716Z,97.18
2017-06-30T00:30:02.690Z,97.04
2017-06-30T00:31:02.673Z,97.04
2017-06-30T00:32:02.657Z,97.09
2017-06-30T00:33:02.635Z,96.8
2017-06-30T00:34:02.612Z,96.99
2017-06-30T00:35:02.593Z,96.8
2017-06-30T00:36:02.571Z,96.61
2017-06-30T00:37:02.550Z,96.7
2017-06-30T00:38:02.529Z,96.61
2017-06-30T00:39:02.519Z,96.8
2017-06-30T00:40:02.493Z,96.61
2017-06-30T00:41:02.478Z,96.99
2017-06-30T00:42:02.449Z,96.22
2017-06-30T00:43:02.425Z,96.13
2017-06-30T00:44:02.408Z,96.13
2017-06-30T00:45:02.386Z,96.42
2017-06-30T00:46:02.369Z,96.03
2017-06-30T00:47:02.346Z,96.22
2017-06-30T00:48:02.328Z,96.32
2017-06-30T00:49:02.305Z,96.42
2017-06-30T00:50:02.289Z,95.94
2017-06-30T00:51:02.266Z,95.84
2017-06-30T00:52:02.247Z,96.03
2017-06-30T00:53:02.276Z,96.03
2017-06-30T00:54:02.203Z,96.13
2017-06-30T00:55:02.191Z,95.65
2017-06-30T00:56:02.165Z,95.84
2017-06-30T00:57:02.145Z,95.65
2017-06-30T00:58:02.127Z,95.94
2017-06-30T00:59:02.101Z,95.94
2017-06-30T01:00:02.082Z,95.84
2017-06-30T01:01:02.064Z,95.84
2017-06-30T01:02:02.040Z,95.75
2017-06-30T01:03:02.021Z,95.84
2017-06-30T01:04:02.002Z,96.03
2017-06-30T01:05:01.977Z,96.13
2017-06-30T01:06:01.956Z,96.13
2017-06-30T01:07:01.937Z,95.94
2017-06-30T01:08:01.917Z,95.56
2017-06-30T01:09:01.901Z,95.89
2017-06-30T01:10:01.882Z,95.98
2017-06-30T01:11:01.859Z,96.18
2017-06-30T01:12:01.840Z,95.41
2017-06-30T01:13:01.819Z,95.41
2017-06-30T01:14:01.808Z,95.41
2017-06-30T01:15:01.778Z,95.22
2017-06-30T01:16:01.755Z,95.41
2017-06-30T01:17:01.740Z,96.18
2017-06-30T01:18:01.716Z,95.98
2017-06-30T01:19:01.695Z,95.79
2017-06-30T01:20:01.674Z,95.7
2017-06-30T01:21:01.653Z,95.79
2017-06-30T01:22:01.632Z,95.79
2017-06-30T01:23:01.653Z,95.98
2017-06-30T01:24:01.590Z,96.08
2017-06-30T01:25:01.574Z,95.79
2017-06-30T01:26:01.549Z,95.79
2017-06-30T01:27:01.584Z,95.51
2017-06-30T01:28:01.508Z,95.7
2017-06-30T01:29:01.486Z,95.79
2017-06-30T01:30:01.468Z,95.7
2017-06-30T01:31:01.452Z,95.79
2017-06-30T01:32:01.422Z,95.79
2017-06-30T01:33:01.405Z,95.79
2017-06-30T01:34:01.391Z,95.89
2017-06-30T01:35:01.364Z,95.98
2017-06-30T01:36:01.342Z,95.79
2017-06-30T01:37:01.322Z,95.79
2017-06-30T01:38:01.303Z,95.7
2017-06-30T01:39:01.282Z,95.79
2017-06-30T01:40:01.271Z,95.51
2017-06-30T01:41:01.246Z,95.79
2017-06-30T01:42:01.224Z,95.7
2017-06-30T01:43:01.202Z,95.79
2017-06-30T01:44:01.179Z,96.18
2017-06-30T01:45:01.159Z,96.08
2017-06-30T01:46:01.138Z,95.89
2017-06-30T01:47:01.119Z,95.89
2017-06-30T01:48:01.098Z,95.75
2017-06-30T01:49:01.081Z,95.84
2017-06-30T01:50:01.057Z,95.84
2017-06-30T01:51:01.034Z,95.75
2017-06-30T01:52:01.019Z,95.75
2017-06-30T01:53:00.998Z,96.03
2017-06-30T01:54:00.971Z,95.84
2017-06-30T01:55:01.004Z,96.22
2017-06-30T01:56:00.985Z,96.22
2017-06-30T01:57:00.915Z,96.22
2017-06-30T01:58:00.942Z,96.13
2017-06-30T01:59:00.872Z,96.03
2017-06-30T02:00:00.847Z,96.22
2017-06-30T02:01:00.883Z,96.22
2017-06-30T02:02:00.809Z,96.03
2017-06-30T02:03:00.788Z,96.13
2017-06-30T02:04:00.767Z,96.32
2017-06-30T02:05:00.750Z,96.13
2017-06-30T02:06:00.729Z,96.13
2017-06-30T02:07:00.705Z,96.18
2017-06-30T02:08:00.688Z,96.32
2017-06-30T02:09:00.358Z,96.13
2017-06-30T02:10:00.641Z,96.32
2017-06-30T02:11:00.622Z,95.94
2017-06-30T02:12:00.603Z,96.22
2017-06-30T02:13:00.580Z,96.22
2017-06-30T02:14:00.615Z,96.13
2017-06-30T02:15:00.536Z,96.32
2017-06-30T02:16:00.771Z,95.94
2017-06-30T02:17:00.495Z,96.51
2017-06-30T02:18:00.485Z,96.13
2017-06-30T02:19:00.461Z,96.13
2017-06-30T02:20:00.437Z,96.32
2017-06-30T02:21:00.416Z,96.32
2017-06-30T02:22:00.447Z,96.32
2017-06-30T02:23:00.372Z,95.94
2017-06-30T02:24:00.357Z,96.32
2017-06-30T02:25:00.331Z,96.22
2017-06-30T02:26:00.314Z,96.13
2017-06-30T02:27:00.337Z,96.61
2017-06-30T02:28:00.274Z,95.94
2017-06-30T02:29:00.248Z,96.13
2017-06-30T02:30:00.247Z,96.13
2017-06-30T02:31:00.210Z,96.32
2017-06-30T02:32:00.189Z,96.22
2017-06-30T02:33:00.168Z,96.13
2017-06-30T02:34:00.149Z,96.13
2017-06-30T02:35:00.129Z,96.32
2017-06-30T02:36:00.104Z,96.22
2017-06-30T02:37:00.084Z,96.32
2017-06-30T02:38:00.063Z,96.13
2017-06-30T02:39:00.046Z,96.13
2017-06-30T02:39:59.718Z,96.13
2017-06-30T02:40:59.702Z,96.51
2017-06-30T02:41:59.980Z,96.13
2017-06-30T02:42:59.962Z,96.22
2017-06-30T02:43:59.960Z,95.75
2017-06-30T02:44:59.917Z,95.56
2017-06-30T02:45:59.956Z,95.65
2017-06-30T02:46:59.872Z,95.75
2017-06-30T02:47:59.855Z,95.84
2017-06-30T02:48:59.836Z,96.03
2017-06-30T02:49:59.813Z,95.84
2017-06-30T02:50:59.792Z,95.94
2017-06-30T02:51:59.472Z,96.03
2017-06-30T02:52:59.752Z,95.94
2017-06-30T02:53:59.730Z,96.03
2017-06-30T02:54:59.708Z,96.03
2017-06-30T02:55:59.694Z,95.94
2017-06-30T02:56:59.670Z,95.56
2017-06-30T02:57:59.653Z,95.94
2017-06-30T02:58:59.323Z,96.03
2017-06-30T02:59:59.604Z,95.75
2017-06-30T03:00:59.585Z,96.03
2017-06-30T03:01:59.567Z,95.36
2017-06-30T03:02:59.543Z,95.36
2017-06-30T03:03:59.224Z,95.65
2017-06-30T03:04:59.507Z,95.27
2017-06-30T03:05:59.481Z,95.56
2017-06-30T03:06:59.470Z,95.46
2017-06-30T03:07:59.439Z,95.36
2017-06-30T03:08:59.423Z,95.36
2017-06-30T03:09:59.416Z,95.17
2017-06-30T03:10:59.382Z,95.17
2017-06-30T03:11:59.356Z,95.07
2017-06-30T03:12:59.347Z,95.27
2017-06-30T03:13:59.315Z,95.17
2017-06-30T03:14:59.294Z,95.27
2017-06-30T03:15:59.275Z,95.36
2017-06-30T03:16:59.254Z,95.07
2017-06-30T03:17:59.232Z,95.27
2017-06-30T03:18:59.220Z,95.75
2017-06-30T03:19:59.192Z,95.27
2017-06-30T03:20:59.173Z,95.27
2017-06-30T03:21:59.151Z,94.89
2017-06-30T03:22:59.137Z,94.89
2017-06-30T03:23:59.110Z,95.27
2017-06-30T03:24:59.088Z,94.98
2017-06-30T03:25:59.069Z,94.98
2017-06-30T03:26:59.061Z,95.36
2017-06-30T03:27:59.027Z,94.89
2017-06-30T03:28:59.003Z,95.17
2017-06-30T03:29:58.990Z,95.07
2017-06-30T03:30:58.967Z,95.17
2017-06-30T03:31:58.945Z,95.17
2017-06-30T03:32:58.969Z,95.27
2017-06-30T03:33:58.951Z,95.46
2017-06-30T03:34:58.884Z,95.36
2017-06-30T03:35:58.859Z,95.27
2017-06-30T03:36:58.837Z,95.07
2017-06-30T03:37:58.822Z,95.27
2017-06-30T03:38:58.801Z,95.36
2017-06-30T03:39:58.824Z,95.65
2017-06-30T03:40:58.762Z,95.22
2017-06-30T03:41:58.737Z,95.31
2017-06-30T03:42:58.716Z,95.36
2017-06-30T03:43:58.692Z,95.65
2017-06-30T03:44:58.674Z,95.17
2017-06-30T03:45:58.651Z,95.17
2017-06-30T03:46:58.627Z,95.36
2017-06-30T03:47:58.610Z,95.36
2017-06-30T03:48:58.287Z,95.27
2017-06-30T03:49:58.568Z,95.27
2017-06-30T03:50:58.547Z,95.17
2017-06-30T03:51:58.523Z,95.17
2017-06-30T03:52:58.508Z,94.98
2017-06-30T03:53:58.483Z,95.07
2017-06-30T03:54:58.462Z,95.27
2017-06-30T03:55:58.443Z,95.36
2017-06-30T03:56:58.426Z,95.17
2017-06-30T03:57:58.401Z,94.69
2017-06-30T03:58:58.379Z,94.6
2017-06-30T03:59:58.365Z,94.98
2017-06-30T04:00:58.335Z,94.79
2017-06-30T04:01:58.321Z,94.79
2017-06-30T04:02:58.300Z,94.79
2017-06-30T04:03:58.282Z,94.98
2017-06-30T04:04:58.308Z,94.98
2017-06-30T04:05:58.238Z,94.6
2017-06-30T04:06:58.221Z,94.6
2017-06-30T04:07:58.192Z,94.6
2017-06-30T04:08:58.177Z,94.4
2017-06-30T04:09:58.153Z,94.69
2017-06-30T04:10:58.144Z,94.69
2017-06-30T04:11:58.113Z,94.69
2017-06-30T04:12:58.092Z,94.4
2017-06-30T04:13:58.070Z,94.4
2017-06-30T04:14:58.049Z,94.45
2017-06-30T04:15:58.034Z,94.4
2017-06-30T04:16:58.011Z,94.69
2017-06-30T04:17:58.037Z,94.21
2017-06-30T04:18:57.964Z,94.12
2017-06-30T04:19:57.945Z,94.45
2017-06-30T04:20:57.926Z,93.93
2017-06-30T04:21:57.906Z,93.93
2017-06-30T04:22:57.584Z,94.12
2017-06-30T04:23:57.861Z,94.21
2017-06-30T04:24:57.842Z,94.31
2017-06-30T04:25:57.821Z,94.4
2017-06-30T04:26:57.803Z,94.26
2017-06-30T04:27:57.778Z,94.17
2017-06-30T04:28:57.765Z,94.07
2017-06-30T04:29:57.739Z,93.64
2017-06-30T04:30:57.972Z,94.17
2017-06-30T04:31:57.698Z,93.88
2017-06-30T04:32:57.682Z,93.98
2017-06-30T04:33:57.661Z,94.07
2017-06-30T04:34:57.638Z,93.59
2017-06-30T04:35:57.622Z,93.69
2017-06-30T04:36:57.598Z,93.3
2017-06-30T04:37:57.574Z,93.59
2017-06-30T04:38:57.558Z,93.69
2017-06-30T04:39:57.537Z,93.4
2017-06-30T04:40:57.514Z,93.4
2017-06-30T04:41:57.510Z,93.69
2017-06-30T04:42:57.477Z,93.59
2017-06-30T04:43:57.455Z,93.4
2017-06-30T04:44:57.439Z,93.02
2017-06-30T04:45:57.412Z,93.78
2017-06-30T04:46:57.391Z,93.78
2017-06-30T04:47:57.371Z,93.78
2017-06-30T04:48:57.351Z,93.21
2017-06-30T04:49:57.336Z,92.92
2017-06-30T04:50:57.361Z,93.02
2017-06-30T04:51:57.290Z,93.3
2017-06-30T04:52:57.271Z,93.02
2017-06-30T04:53:57.248Z,93.11
2017-06-30T04:54:57.228Z,93.3
2017-06-30T04:55:57.510Z,93.11
2017-06-30T04:56:56.888Z,93.49
2017-06-30T04:57:57.173Z,93.4
2017-06-30T04:58:57.152Z,93.4
2017-06-30T04:59:57.130Z,93.02
2017-06-30T05:00:57.111Z,93.3
2017-06-30T05:01:57.088Z,93.26
2017-06-30T05:02:57.071Z,93.26
2017-06-30T05:03:57.046Z,93.44
2017-06-30T05:04:57.031Z,92.87
2017-06-30T05:05:57.008Z,92.77
2017-06-30T05:06:56.988Z,92.97
2017-06-30T05:07:56.965Z,92.68
2017-06-30T05:08:56.948Z,92.87
2017-06-30T05:09:56.977Z,92.77
2017-06-30T05:10:56.907Z,92.49
2017-06-30T05:11:56.934Z,92.58
2017-06-30T05:12:56.867Z,92.49
2017-06-30T05:13:56.848Z,92.39
2017-06-30T05:14:56.826Z,92.49
2017-06-30T05:15:56.803Z,92.39
2017-06-30T05:16:56.784Z,92.39
2017-06-30T05:17:56.766Z,92.2
2017-06-30T05:18:56.747Z,92.68
2017-06-30T05:19:56.722Z,91.96
2017-06-30T05:20:56.707Z,92.3
2017-06-30T05:21:56.682Z,92.1
2017-06-30T05:22:56.666Z,91.57
2017-06-30T05:23:56.696Z,91.86
2017-06-30T05:24:56.635Z,91.48
2017-06-30T05:25:56.603Z,91.48
2017-06-30T05:26:56.636Z,91.57
2017-06-30T05:27:56.626Z,91.86
2017-06-30T05:28:56.545Z,91.48
2017-06-30T05:29:56.524Z,91.19
2017-06-30T05:30:56.507Z,91.67
2017-06-30T05:31:56.490Z,90.71
2017-06-30T05:32:56.464Z,90.9
2017-06-30T05:33:56.444Z,90.81
2017-06-30T05:34:56.427Z,90.9
2017-06-30T05:35:56.415Z,91.05
2017-06-30T05:36:56.396Z,90.71
2017-06-30T05:37:56.418Z,90.75
2017-06-30T05:38:56.355Z,90.37
2017-06-30T05:39:56.334Z,90.75
2017-06-30T05:40:56.311Z,90.08
2017-06-30T05:41:56.291Z,90.08
2017-06-30T05:42:56.270Z,89.89
2017-06-30T05:43:56.251Z,89.79
2017-06-30T05:44:56.230Z,89.99
2017-06-30T05:45:56.209Z,89.65
2017-06-30T05:46:56.197Z,89.61
2017-06-30T05:47:56.173Z,89.84
2017-06-30T05:48:56.155Z,89.84
2017-06-30T05:49:56.134Z,89.46
2017-06-30T05:50:56.115Z,89.07
2017-06-30T05:51:56.100Z,88.69
2017-06-30T05:52:56.076Z,88.88
2017-06-30T05:53:56.055Z,88.4
2017-06-30T05:54:56.035Z,88.79
2017-06-30T05:55:56.016Z,88.21
2017-06-30T05:56:56.008Z,87.87
2017-06-30T05:57:55.978Z,87.68
2017-06-30T05:58:55.959Z,87.68
2017-06-30T05:59:55.939Z,87.68
2017-06-30T06:00:55.925Z,87.29
2017-06-30T06:01:55.953Z,87.01
2017-06-30T06:02:55.887Z,86.72
2017-06-30T06:03:55.863Z,86.14
2017-06-30T06:04:55.845Z,86.33
2017-06-30T06:05:55.834Z,85.95
2017-06-30T06:06:55.809Z,85.8
2017-06-30T06:07:55.796Z,85.61
2017-06-30T06:08:55.769Z,85.8
2017-06-30T06:09:55.756Z,85.22
2017-06-30T06:10:55.733Z,84.94
2017-06-30T06:11:55.717Z,85.13
2017-06-30T06:12:55.746Z,85.13
2017-06-30T06:13:55.679Z,84.94
2017-06-30T06:14:55.659Z,84.17
2017-06-30T06:15:55.694Z,84.11
2017-06-30T06:16:55.621Z,84.5
2017-06-30T06:17:55.660Z,84.21
2017-06-30T06:18:55.584Z,83.73
2017-06-30T06:19:55.575Z,83.44
2017-06-30T06:20:55.604Z,83.25
2017-06-30T06:21:55.534Z,82.96
2017-06-30T06:22:55.511Z,82.57
2017-06-30T06:23:55.493Z,82.29
2017-06-30T06:24:55.476Z,82.32
2017-06-30T06:25:55.459Z,81.75
2017-06-30T06:26:55.441Z,81.04
2017-06-30T06:27:55.421Z,80.75
2017-06-30T06:28:55.410Z,80.27
2017-06-30T06:29:55.386Z,80.27
2017-06-30T06:30:55.378Z,81.32
2017-06-30T06:31:55.350Z,81.23
2017-06-30T06:32:55.332Z,80.51
2017-06-30T06:33:55.321Z,81.32
2017-06-30T06:34:55.455Z,80.55
2017-06-30T06:35:55.276Z,80.75
2017-06-30T06:36:55.318Z,80.27
2017-06-30T06:37:55.240Z,80.17
2017-06-30T06:38:55.232Z,80.46
2017-06-30T06:39:55.207Z,80.17
2017-06-30T06:40:55.196Z,80.27
2017-06-30T06:41:55.169Z,79.69
2017-06-30T06:42:55.149Z,79.79
2017-06-30T06:43:55.136Z,79.5
2017-06-30T06:44:55.125Z,79.73
2017-06-30T06:45:55.102Z,79.82
2017-06-30T06:46:55.078Z,79.35
2017-06-30T06:47:55.069Z,79.15
2017-06-30T06:48:55.058Z,78.86
2017-06-30T06:49:55.025Z,79.15
2017-06-30T06:50:55.008Z,79.25
2017-06-30T06:51:54.992Z,78.67
2017-06-30T06:52:55.020Z,78.38
2017-06-30T06:53:54.955Z,78.38
2017-06-30T06:54:54.947Z,78.38
2017-06-30T06:55:54.924Z,78.38
2017-06-30T06:56:54.900Z,78.09
2017-06-30T06:57:54.882Z,77.84
2017-06-30T06:58:54.866Z,77.56
2017-06-30T06:59:54.847Z,77.75
2017-06-30T07:00:54.829Z,76.98
2017-06-30T07:01:54.816Z,76.84
2017-06-30T07:02:54.805Z,77.26
2017-06-30T07:03:54.778Z,76.84
2017-06-30T07:04:54.807Z,76.84
2017-06-30T07:05:54.737Z,76.65
2017-06-30T07:06:54.740Z,76.65
2017-06-30T07:07:54.755Z,76.94
2017-06-30T07:08:54.710Z,77.04
2017-06-30T07:09:54.670Z,76.65
2017-06-30T07:10:54.656Z,76.65
2017-06-30T07:11:54.643Z,77.04
2017-06-30T07:12:54.617Z,76.75
2017-06-30T07:13:54.602Z,76.26
2017-06-30T07:14:54.587Z,76.07
2017-06-30T07:15:54.563Z,76.94
2017-06-30T07:16:54.548Z,76.81
2017-06-30T07:17:54.528Z,77.58
2017-06-30T07:18:54.510Z,77.58
2017-06-30T07:19:54.494Z,77.48
2017-06-30T07:20:54.470Z,77.67
2017-06-30T07:21:54.454Z,77.86
2017-06-30T07:22:54.437Z,77.67
2017-06-30T07:23:54.422Z,77.96
2017-06-30T07:24:54.401Z,78.06
2017-06-30T07:25:54.383Z,78.34
2017-06-30T07:26:54.364Z,78.44
2017-06-30T07:27:54.347Z,78.34
2017-06-30T07:28:54.327Z,78.15
2017-06-30T07:29:54.308Z,78.25
2017-06-30T07:30:54.309Z,78.53
2017-06-30T07:31:54.280Z,78.59
2017-06-30T07:32:54.259Z,78.5
2017-06-30T07:33:54.236Z,79.17
2017-06-30T07:34:54.274Z,79.36
2017-06-30T07:35:54.203Z,79.02
2017-06-30T07:36:54.184Z,78.88
2017-06-30T07:37:54.160Z,78.98
2017-06-30T07:38:54.144Z,79.55
2017-06-30T07:39:54.131Z,79.84
2017-06-30T07:40:54.106Z,79.94
2017-06-30T07:41:54.091Z,79.75
2017-06-30T07:42:54.122Z,79.65
2017-06-30T07:43:54.053Z,80.04
2017-06-30T07:44:54.030Z,79.99
2017-06-30T07:45:54.114Z,80.47
2017-06-30T07:46:53.997Z,81.05
2017-06-30T07:47:53.980Z,80.96
2017-06-30T07:48:53.963Z,80.96
2017-06-30T07:49:53.940Z,81.43
2017-06-30T07:50:53.921Z,81.82
2017-06-30T07:51:53.953Z,81.43
2017-06-30T07:52:53.932Z,81.92
2017-06-30T07:53:53.865Z,82.4
2017-06-30T07:54:53.854Z,82.2
2017-06-30T07:55:53.829Z,82.4
2017-06-30T07:56:53.816Z,82.93
2017-06-30T07:57:53.789Z,83.03
2017-06-30T07:58:53.821Z,83.41
2017-06-30T07:59:53.754Z,83.6
2017-06-30T08:00:53.733Z,83.89
2017-06-30T08:01:53.716Z,83.89
2017-06-30T08:02:53.700Z,84.27
2017-06-30T08:03:53.673Z,84.66
2017-06-30T08:04:53.657Z,84.85
2017-06-30T08:05:53.645Z,84.66
2017-06-30T08:06:53.620Z,85.62
2017-06-30T08:07:53.596Z,85.71
2017-06-30T08:08:53.579Z,85.71
2017-06-30T08:09:53.558Z,86.34
2017-06-30T08:10:53.742Z,85.86
2017-06-30T08:11:53.521Z,86.54
2017-06-30T08:12:53.502Z,86.44
2017-06-30T08:13:53.489Z,86.63
2017-06-30T08:14:53.164Z,86.63
2017-06-30T08:15:53.445Z,87.15
2017-06-30T08:16:53.427Z,87.21
2017-06-30T08:17:53.402Z,87.25
2017-06-30T08:18:53.385Z,87.49
2017-06-30T08:19:53.369Z,87.54
2017-06-30T08:20:53.447Z,87.25
2017-06-30T08:21:53.324Z,87.05
2017-06-30T08:22:53.307Z,87.25
2017-06-30T08:23:53.287Z,87.44
2017-06-30T08:24:53.270Z,87.54
2017-06-30T08:25:53.264Z,87.54
2017-06-30T08:26:53.227Z,87.54
2017-06-30T08:27:53.203Z,87.44
2017-06-30T08:28:53.191Z,87.15
2017-06-30T08:29:53.224Z,86.87
2017-06-30T08:30:52.844Z,87.73
2017-06-30T08:31:53.133Z,87.25
2017-06-30T08:32:53.114Z,87.19
2017-06-30T08:33:53.090Z,86.81
2017-06-30T08:34:53.067Z,86.33
2017-06-30T08:35:53.053Z,86.05
2017-06-30T08:36:53.030Z,86.43
2017-06-30T08:37:52.714Z,85.95
2017-06-30T08:38:52.995Z,85.47
2017-06-30T08:39:52.976Z,84.74
2017-06-30T08:40:52.960Z,84.74
2017-06-30T08:41:52.944Z,84.55
2017-06-30T08:42:52.914Z,84.64
2017-06-30T08:43:52.898Z,83.53
2017-06-30T08:44:52.881Z,83.63
2017-06-30T08:45:52.860Z,83.09
2017-06-30T08:46:52.843Z,82.32
2017-06-30T08:47:52.826Z,81.98
2017-06-30T08:48:52.806Z,81.6
2017-06-30T08:49:52.792Z,81.21
2017-06-30T08:50:52.776Z,79.96
2017-06-30T08:51:52.752Z,79.96
2017-06-30T08:52:52.729Z,78.71
2017-06-30T08:53:52.747Z,78.13
2017-06-30T08:54:52.702Z,78.56
2017-06-30T08:55:52.675Z,77.78
2017-06-30T08:56:52.665Z,77.01
2017-06-30T08:57:52.658Z,77.11
2017-06-30T08:58:52.636Z,77.06
2017-06-30T08:59:52.617Z,76.48
2017-06-30T09:00:52.594Z,76.32
2017-06-30T09:01:52.579Z,75.84
2017-06-30T09:02:52.605Z,75.59
2017-06-30T09:03:52.844Z,73.75
2017-06-30T09:04:52.225Z,73.75
2017-06-30T09:05:52.515Z,73.6
2017-06-30T09:06:52.645Z,72.63
2017-06-30T09:07:52.487Z,72.83
2017-06-30T09:08:52.463Z,72.54
2017-06-30T09:09:52.449Z,71.77
2017-06-30T09:10:52.430Z,71.96
2017-06-30T09:11:52.420Z,71.77
2017-06-30T09:12:52.400Z,71.51
2017-06-30T09:13:52.380Z,71.03
2017-06-30T09:14:52.364Z,70.26
2017-06-30T09:15:52.350Z,70.54
2017-06-30T09:16:52.385Z,70.32
2017-06-30T09:17:52.321Z,69.68
2017-06-30T09:18:52.306Z,69.68
2017-06-30T09:19:51.985Z,69.87
2017-06-30T09:20:52.284Z,69.97
2017-06-30T09:21:52.258Z,69.29
2017-06-30T09:22:52.245Z,69.45
2017-06-30T09:23:52.225Z,69.49
2017-06-30T09:24:52.214Z,69.07
2017-06-30T09:25:52.199Z,69.55
2017-06-30T09:26:52.186Z,69.35
2017-06-30T09:27:52.162Z,69.45
2017-06-30T09:28:52.151Z,68.62
2017-06-30T09:29:52.134Z,68.43
2017-06-30T09:30:52.121Z,68.81
2017-06-30T09:31:52.107Z,68.43
2017-06-30T09:32:52.115Z,68.43
2017-06-30T09:33:52.072Z,67.94
2017-06-30T09:34:52.057Z,68.33
2017-06-30T09:35:52.041Z,67.85
2017-06-30T09:36:52.028Z,67.75
2017-06-30T09:37:52.010Z,67.55
2017-06-30T09:38:51.995Z,67.01
2017-06-30T09:39:51.987Z,67.55
2017-06-30T09:40:51.967Z,67.17
2017-06-30T09:41:51.956Z,67.46
2017-06-30T09:42:51.936Z,67.17
2017-06-30T09:43:51.922Z,66.49
2017-06-30T09:44:51.904Z,66.56
2017-06-30T09:45:51.588Z,66.94
2017-06-30T09:46:51.875Z,67.43
2017-06-30T09:47:51.860Z,67.33
2017-06-30T09:48:51.843Z,67.43
2017-06-30T09:49:51.833Z,66.85
2017-06-30T09:50:51.811Z,66.94
2017-06-30T09:51:51.795Z,67.04
2017-06-30T09:52:51.786Z,67.43
2017-06-30T09:53:51.822Z,67.04
2017-06-30T09:54:51.748Z,67.33
2017-06-30T09:55:51.740Z,67.23
2017-06-30T09:56:51.719Z,67.23
2017-06-30T09:57:51.702Z,67.52
2017-06-30T09:58:51.689Z,67.17
2017-06-30T09:59:51.722Z,66.11
2017-06-30T10:00:51.660Z,66.11
2017-06-30T10:01:51.644Z,64.98
2017-06-30T10:02:51.629Z,65.37
2017-06-30T10:03:51.613Z,64.59
2017-06-30T10:04:51.594Z,64.98
2017-06-30T10:05:51.593Z,65.08
2017-06-30T10:06:51.567Z,64.5
2017-06-30T10:07:51.246Z,64.47
2017-06-30T10:08:51.540Z,65.53
2017-06-30T10:09:51.550Z,65.63
2017-06-30T10:10:51.510Z,65.24
2017-06-30T10:11:51.489Z,64.98
2017-06-30T10:12:51.478Z,64.98
2017-06-30T10:13:51.461Z,64.34
2017-06-30T10:14:51.450Z,63.85
2017-06-30T10:15:51.440Z,62.82
2017-06-30T10:16:51.473Z,62.44
2017-06-30T10:17:51.402Z,62.73
2017-06-30T10:18:51.691Z,62.08
2017-06-30T10:19:51.373Z,61.89
2017-06-30T10:20:51.421Z,61.79
2017-06-30T10:21:51.344Z,61.24
2017-06-30T10:22:51.331Z,59.98
2017-06-30T10:23:51.323Z,60.17
2017-06-30T10:24:51.300Z,59.79
2017-06-30T10:25:51.291Z,59.59
2017-06-30T10:26:51.285Z,59.69
2017-06-30T10:27:51.267Z,59.69
2017-06-30T10:28:51.255Z,59.98
2017-06-30T10:29:51.241Z,59.4
2017-06-30T10:30:51.229Z,59.59
2017-06-30T10:31:51.212Z,59.21
2017-06-30T10:32:51.200Z,59.11
2017-06-30T10:33:51.187Z,59.11
2017-06-30T10:34:51.176Z,59.79
2017-06-30T10:35:51.319Z,59.59
2017-06-30T10:36:51.151Z,59.89
2017-06-30T10:37:51.140Z,59.98
2017-06-30T10:38:51.129Z,60.14
2017-06-30T10:39:51.163Z,60.05
2017-06-30T10:40:51.096Z,60.05
2017-06-30T10:41:51.085Z,60.14
2017-06-30T10:42:51.073Z,59.86
2017-06-30T10:43:51.059Z,59.76
2017-06-30T10:44:51.045Z,59.66
2017-06-30T10:45:51.183Z,59.66
2017-06-30T10:46:51.017Z,59.56
2017-06-30T10:47:51.005Z,58.98
2017-06-30T10:48:50.990Z,58.89
2017-06-30T10:49:50.978Z,58.37
2017-06-30T10:50:50.963Z,58.57
2017-06-30T10:51:51.047Z,59.41
2017-06-30T10:52:50.936Z,59.99
2017-06-30T10:53:50.623Z,60.28
2017-06-30T10:54:50.907Z,61.41
2017-06-30T10:55:50.889Z,61.22
2017-06-30T10:56:50.872Z,60.93
2017-06-30T10:57:50.856Z,62.05
2017-06-30T10:58:50.848Z,62.05
2017-06-30T10:59:50.833Z,62.25
2017-06-30T11:00:50.814Z,62.41
2017-06-30T11:01:50.545Z,62.51
2017-06-30T11:02:50.789Z,63.37
2017-06-30T11:03:50.768Z,63.37
2017-06-30T11:04:50.847Z,62.99
2017-06-30T11:05:50.737Z,63.67
2017-06-30T11:06:50.720Z,64.15
2017-06-30T11:07:50.703Z,64.34
2017-06-30T11:08:50.687Z,64.05
2017-06-30T11:09:50.670Z,63.95
2017-06-30T11:10:50.654Z,63.85
2017-06-30T11:11:50.347Z,63.47
2017-06-30T11:12:50.623Z,63.57
2017-06-30T11:13:50.606Z,63.76
2017-06-30T11:14:50.588Z,64.11
2017-06-30T11:15:50.575Z,64.5
2017-06-30T11:16:50.554Z,63.73
2017-06-30T11:17:50.589Z,64.11
2017-06-30T11:18:50.522Z,64.4
2017-06-30T11:19:50.504Z,64.5
2017-06-30T11:20:50.490Z,64.4
2017-06-30T11:21:50.469Z,64.34
2017-06-30T11:22:50.464Z,64.34
2017-06-30T11:23:50.490Z,64.15
2017-06-30T11:24:50.427Z,63.67
2017-06-30T11:25:50.408Z,63.09
2017-06-30T11:26:50.441Z,62.15
2017-06-30T11:27:50.377Z,62.05
2017-06-30T11:28:50.359Z,61.19
2017-06-30T11:29:50.338Z,60.71
2017-06-30T11:30:50.329Z,60.99
2017-06-30T11:31:50.308Z,61.19
2017-06-30T11:32:50.293Z,60.71
2017-06-30T11:33:50.300Z,60.73
2017-06-30T11:34:50.286Z,60.64
2017-06-30T11:35:50.244Z,60.54
2017-06-30T11:36:50.282Z,59.99
2017-06-30T11:37:50.220Z,60.67
2017-06-30T11:38:50.200Z,59.7
2017-06-30T11:39:50.182Z,59.22
2017-06-30T11:40:49.864Z,58.67
2017-06-30T11:41:50.152Z,58.47
2017-06-30T11:42:50.137Z,58.47
2017-06-30T11:43:50.119Z,57.89
2017-06-30T11:44:50.106Z,57.89
2017-06-30T11:45:50.100Z,58.57
2017-06-30T11:46:50.075Z,58.67
2017-06-30T11:47:50.062Z,58.09
2017-06-30T11:48:50.048Z,57.63
2017-06-30T11:49:50.025Z,57.92
2017-06-30T11:50:50.017Z,57.24
2017-06-30T11:51:49.998Z,57.34
2017-06-30T11:52:49.979Z,56.86
2017-06-30T11:53:49.967Z,56.67
2017-06-30T11:54:49.952Z,56.28
2017-06-30T11:55:49.944Z,55.79
2017-06-30T11:56:49.922Z,55.99
2017-06-30T11:57:49.908Z,56.28
2017-06-30T11:58:49.898Z,55.96
2017-06-30T11:59:49.876Z,55.87
2017-06-30T12:00:49.565Z,56.15
2017-06-30T12:01:49.843Z,57.12
2017-06-30T12:02:49.832Z,56.93
2017-06-30T12:03:49.821Z,57.03
2017-06-30T12:04:49.802Z,56.57
2017-06-30T12:05:49.840Z,56.37
2017-06-30T12:06:49.771Z,56.28
2017-06-30T12:07:49.757Z,56.18
2017-06-30T12:08:49.743Z,56.28
2017-06-30T12:09:49.428Z,55.89
2017-06-30T12:10:49.428Z,54.93
2017-06-30T12:11:49.699Z,55.02
2017-06-30T12:12:49.684Z,54.83
2017-06-30T12:13:49.373Z,55.11
2017-06-30T12:14:49.654Z,54.73
2017-06-30T12:15:49.637Z,55.11
2017-06-30T12:16:49.626Z,54.83
2017-06-30T12:17:49.607Z,55.51
2017-06-30T12:18:49.682Z,54.83
2017-06-30T12:19:49.580Z,54.73
2017-06-30T12:20:49.560Z,54.73
2017-06-30T12:21:49.545Z,55.02
2017-06-30T12:22:49.527Z,54.93
2017-06-30T12:23:49.524Z,54.35
2017-06-30T12:24:49.500Z,54.73
2017-06-30T12:25:49.480Z,54.73
2017-06-30T12:26:49.469Z,54.47
2017-06-30T12:27:49.454Z,54.08
2017-06-30T12:28:49.445Z,54.17
2017-06-30T12:29:49.428Z,54.66
2017-06-30T12:30:49.412Z,53.99
2017-06-30T12:31:49.397Z,53.89
2017-06-30T12:32:49.376Z,53.99
2017-06-30T12:33:49.362Z,53.89
2017-06-30T12:34:49.345Z,53.89
2017-06-30T12:35:49.339Z,54.15
2017-06-30T12:36:49.321Z,54.44
2017-06-30T12:37:49.300Z,54.63
2017-06-30T12:38:49.297Z,55.11
2017-06-30T12:39:49.275Z,55.31
2017-06-30T12:40:49.257Z,54.8
2017-06-30T12:41:49.241Z,55.09
2017-06-30T12:42:49.228Z,55.57
2017-06-30T12:43:49.210Z,55.57
2017-06-30T12:44:49.195Z,55.93
2017-06-30T12:45:49.178Z,56.32
2017-06-30T12:46:49.165Z,56.41
2017-06-30T12:47:49.199Z,55.93
2017-06-30T12:48:49.127Z,56.13
2017-06-30T12:49:49.115Z,56.51
2017-06-30T12:50:49.104Z,56.1
2017-06-30T12:51:49.087Z,56.41
2017-06-30T12:52:49.066Z,56.03
2017-06-30T12:53:49.060Z,56.32